Terminal Aerodrome Forecast
Issued by NWS Wilmington, OH

Home | Current Version | Previous Version | Text Only | Print | Product List | Glossary On
Versions: 1 2 3 4 5 6 7 8 9 10 11 12 13 14 15 16 17 18 19 20 21 22 23
430
FTUS41 KILN 291738
TAFCVG
TAF
KCVG 291738Z 2918/3024 21008KT P6SM SCT040
      TEMPO 2922/2923 VRB12G20KT -TSRA SCT020 BKN030CB
     FM292300 24005KT P6SM VCSH BKN035
     FM300200 24004KT P6SM SCT050
     FM301400 34007KT P6SM FEW040=

USA.gov is the U.S. government's official web portal to all federal, state and local government web resources and services.